createdAt,value
2022-10-30T00:00:41.808Z,98733.69
2022-10-30T00:03:15.778Z,98737.25
2022-10-30T00:05:47.929Z,98727.72
2022-10-30T00:08:17.295Z,98736.97
2022-10-30T00:10:45.167Z,98725.41
2022-10-30T00:13:13.157Z,98731.78
2022-10-30T00:15:40.667Z,98732.16
2022-10-30T00:18:08.003Z,98733.09
2022-10-30T00:20:36.846Z,98727.59
2022-10-30T00:23:04.161Z,98727.84
2022-10-30T00:25:31.600Z,98731.09
2022-10-30T00:27:58.947Z,98723.69
2022-10-30T00:30:26.260Z,98725.53
2022-10-30T00:32:53.584Z,98720.56
2022-10-30T00:35:20.854Z,98721.25
2022-10-30T00:37:48.132Z,98717.63
2022-10-30T00:40:17.897Z,98719.19
2022-10-30T00:42:45.330Z,98715.22
2022-10-30T00:45:17.492Z,98715.94
2022-10-30T00:47:52.294Z,98718.84
2022-10-30T00:53:09.936Z,98709.69
2022-10-30T00:55:48.570Z,98712.28
2022-10-30T00:58:19.337Z,98711.31
2022-10-30T01:00:49.195Z,98716.78
2022-10-30T01:03:16.615Z,98710.44
2022-10-30T01:05:45.768Z,98710.59
2022-10-30T01:08:13.195Z,98715.50
2022-10-30T01:10:40.596Z,98710.72
2022-10-30T01:13:08.153Z,98718.34
2022-10-30T01:15:39.943Z,98718.69
2022-10-30T01:18:26.341Z,98721.72
2022-10-30T01:21:18.629Z,98724.69
2022-10-30T01:24:17.153Z,98724.84
2022-10-30T01:27:09.202Z,98716.91
2022-10-30T01:30:01.900Z,98723.75
2022-10-30T01:32:42.603Z,98716.91
2022-10-30T01:35:38.688Z,98717.88
2022-10-30T01:38:16.915Z,98724.91
2022-10-30T01:40:45.589Z,98720.41
2022-10-30T01:43:13.173Z,98712.00
2022-10-30T01:45:49.858Z,98708.66
2022-10-30T01:48:29.949Z,98696.97
2022-10-30T01:51:17.780Z,98697.09
2022-10-30T01:54:03.724Z,98701.94
2022-10-30T01:56:36.754Z,98701.19
2022-10-30T01:59:23.538Z,98699.88
2022-10-30T02:01:51.204Z,98691.84
2022-10-30T02:04:18.818Z,98693.91
2022-10-30T02:06:46.705Z,98680.88
2022-10-30T02:09:16.589Z,98682.44
2022-10-30T02:11:48.823Z,98676.66
2022-10-30T02:14:21.607Z,98675.69
2022-10-30T02:16:51.560Z,98678.81
2022-10-30T02:19:20.511Z,98669.38
2022-10-30T02:21:48.860Z,98672.44
2022-10-30T02:24:16.248Z,98671.31
2022-10-30T02:26:43.757Z,98669.03
2022-10-30T02:29:11.133Z,98666.00
2022-10-30T02:31:38.475Z,98667.16
2022-10-30T02:34:06.135Z,98674.25
2022-10-30T02:36:33.537Z,98669.31
2022-10-30T02:39:00.898Z,98669.63
2022-10-30T02:41:28.258Z,98661.97
2022-10-30T02:43:55.863Z,98667.06
2022-10-30T02:46:23.363Z,98667.91
2022-10-30T02:48:51.027Z,98666.59
2022-10-30T02:51:18.334Z,98668.50
2022-10-30T02:53:47.446Z,98674.66
2022-10-30T02:56:15.607Z,98666.03
2022-10-30T02:58:43.704Z,98661.69
2022-10-30T03:01:16.638Z,98663.38
2022-10-30T03:03:45.133Z,98663.75
2022-10-30T03:06:15.591Z,98661.78
2022-10-30T03:08:43.822Z,98668.88
2022-10-30T03:11:16.549Z,98669.47
2022-10-30T03:13:45.080Z,98672.69
2022-10-30T03:16:14.922Z,98679.03
2022-10-30T03:18:42.752Z,98673.28
2022-10-30T03:21:13.627Z,98683.84
2022-10-30T03:23:40.947Z,98679.97
2022-10-30T03:26:08.664Z,98674.69
2022-10-30T03:28:54.710Z,98667.47
2022-10-30T03:31:22.466Z,98672.00
2022-10-30T03:34:04.172Z,98686.16
2022-10-30T03:36:31.508Z,98683.03
2022-10-30T03:38:58.804Z,98682.78
2022-10-30T03:41:26.917Z,98679.66
2022-10-30T03:43:54.647Z,98688.41
2022-10-30T03:46:22.266Z,98694.31
2022-10-30T03:48:50.975Z,98690.03
2022-10-30T03:51:18.363Z,98680.97
2022-10-30T03:53:47.353Z,98687.50
2022-10-30T03:56:14.670Z,98693.84
2022-10-30T03:58:47.284Z,98693.25
2022-10-30T04:01:18.992Z,98701.41
2022-10-30T04:03:50.323Z,98706.94
2022-10-30T04:06:18.020Z,98705.09
2022-10-30T04:08:45.416Z,98706.72
2022-10-30T04:11:12.826Z,98710.09
2022-10-30T04:13:41.051Z,98699.50
2022-10-30T04:16:08.511Z,98698.38
2022-10-30T04:18:35.819Z,98705.25
2022-10-30T04:21:03.442Z,98703.34
2022-10-30T04:23:32.193Z,98703.59
2022-10-30T04:26:01.708Z,98700.19
2022-10-30T04:28:29.215Z,98705.66
2022-10-30T04:30:57.281Z,98712.88
2022-10-30T04:33:26.127Z,98711.47
2022-10-30T04:35:54.864Z,98714.66
2022-10-30T04:38:22.367Z,98715.63
2022-10-30T04:40:50.027Z,98705.91
2022-10-30T04:43:18.727Z,98700.50
2022-10-30T04:45:50.137Z,98704.44
2022-10-30T04:48:18.670Z,98700.72
2022-10-30T04:50:47.881Z,98699.13
2022-10-30T04:53:24.792Z,98699.75
2022-10-30T04:55:58.097Z,98705.31
2022-10-30T04:58:27.611Z,98707.44
2022-10-30T05:01:05.896Z,98703.69
2022-10-30T05:03:34.436Z,98699.28
2022-10-30T05:06:06.322Z,98703.94
2022-10-30T05:08:34.089Z,98705.56
2022-10-30T05:11:07.996Z,98692.63
2022-10-30T05:13:36.285Z,98691.56
2022-10-30T05:16:03.879Z,98687.41
2022-10-30T05:18:32.557Z,98683.84
2022-10-30T05:20:59.999Z,98685.34
2022-10-30T05:23:27.449Z,98686.72
2022-10-30T05:25:54.868Z,98692.00
2022-10-30T05:28:22.271Z,98682.50
2022-10-30T05:30:55.836Z,98679.34
2022-10-30T05:33:46.130Z,98683.44
2022-10-30T05:36:14.390Z,98692.06
2022-10-30T05:38:42.539Z,98688.50
2022-10-30T05:41:14.872Z,98686.06
2022-10-30T05:43:42.343Z,98686.16
2022-10-30T05:46:09.821Z,98681.72
2022-10-30T05:48:37.610Z,98682.50
2022-10-30T05:51:06.649Z,98681.88
2022-10-30T05:53:34.299Z,98682.41
2022-10-30T05:56:03.055Z,98688.50
2022-10-30T05:58:34.482Z,98690.00
2022-10-30T06:01:09.717Z,98692.41
2022-10-30T06:03:44.850Z,98686.09
2022-10-30T06:06:13.035Z,98690.63
2022-10-30T06:08:40.580Z,98687.13
2022-10-30T06:11:26.671Z,98685.66
2022-10-30T06:13:56.323Z,98689.78
2022-10-30T06:16:35.862Z,98690.53
2022-10-30T06:19:23.499Z,98696.63
2022-10-30T06:21:54.831Z,98686.09
2022-10-30T06:24:27.052Z,98689.34
2022-10-30T06:27:13.297Z,98697.25
2022-10-30T06:29:40.813Z,98690.72
2022-10-30T06:32:09.069Z,98696.41
2022-10-30T06:34:37.310Z,98696.63
2022-10-30T06:37:04.851Z,98699.81
2022-10-30T06:39:32.871Z,98694.94
2022-10-30T06:42:20.516Z,98694.63
2022-10-30T06:44:57.851Z,98688.72
2022-10-30T06:47:25.258Z,98703.19
2022-10-30T06:49:52.677Z,98702.56
2022-10-30T06:52:23.026Z,98709.72
2022-10-30T06:54:51.658Z,98707.16
2022-10-30T06:57:38.187Z,98697.47
2022-10-30T07:00:37.977Z,98706.88
2022-10-30T07:03:14.362Z,98704.81
2022-10-30T07:05:41.927Z,98701.63
2022-10-30T07:08:09.308Z,98697.78
2022-10-30T07:10:37.046Z,98694.94
2022-10-30T07:13:28.398Z,98689.16
2022-10-30T07:16:01.393Z,98697.53
2022-10-30T07:18:36.319Z,98685.22
2022-10-30T07:21:03.788Z,98695.44
2022-10-30T07:23:32.180Z,98688.19
2022-10-30T07:26:20.139Z,98673.53
2022-10-30T07:28:47.731Z,98671.22
2022-10-30T07:31:34.851Z,98667.34
2022-10-30T07:34:26.257Z,98661.97
2022-10-30T07:37:06.123Z,98669.28
2022-10-30T07:39:43.557Z,98684.91
2022-10-30T07:42:19.402Z,98690.47
2022-10-30T07:45:05.809Z,98700.50
2022-10-30T07:47:52.044Z,98698.97
2022-10-30T07:50:33.860Z,98703.06
2022-10-30T07:53:01.165Z,98698.34
2022-10-30T07:55:31.940Z,98710.03
2022-10-30T07:58:19.307Z,98714.31
2022-10-30T08:01:05.381Z,98713.28
2022-10-30T08:03:34.263Z,98714.25
2022-10-30T08:06:06.836Z,98709.75
2022-10-30T08:08:42.089Z,98709.34
2022-10-30T08:11:39.642Z,98714.94
2022-10-30T08:14:07.024Z,98713.22
2022-10-30T08:16:34.366Z,98714.81
2022-10-30T08:19:02.948Z,98716.09
2022-10-30T08:21:30.286Z,98703.63
2022-10-30T08:24:06.171Z,98711.69
2022-10-30T08:26:35.499Z,98706.38
2022-10-30T08:29:03.501Z,98704.47
2022-10-30T08:31:31.750Z,98705.09
2022-10-30T08:34:01.795Z,98699.53
2022-10-30T08:36:51.466Z,98700.41
2022-10-30T08:39:20.082Z,98700.16
2022-10-30T08:42:24.840Z,98696.91
2022-10-30T08:44:54.654Z,98700.66
2022-10-30T08:47:41.998Z,98701.97
2022-10-30T08:50:09.627Z,98696.47
2022-10-30T08:52:37.857Z,98690.25
2022-10-30T08:55:09.377Z,98691.75
2022-10-30T08:57:39.094Z,98701.84
2022-10-30T09:00:09.604Z,98684.06
2022-10-30T09:02:58.055Z,98696.06
2022-10-30T09:05:43.836Z,98688.19
2022-10-30T09:08:31.529Z,98694.97
2022-10-30T09:11:37.156Z,98684.59
2022-10-30T09:14:04.511Z,98692.00
2022-10-30T09:16:31.958Z,98687.38
2022-10-30T09:18:59.395Z,98689.25
2022-10-30T09:21:27.009Z,98692.63
2022-10-30T09:23:54.736Z,98693.00
2022-10-30T09:26:37.206Z,98687.28
2022-10-30T09:29:27.484Z,98688.34
2022-10-30T09:32:05.091Z,98683.72
2022-10-30T09:34:33.378Z,98688.13
2022-10-30T09:37:05.476Z,98692.97
2022-10-30T09:39:36.821Z,98689.41
2022-10-30T09:42:37.714Z,98693.47
2022-10-30T09:45:30.018Z,98690.69
2022-10-30T09:48:02.296Z,98696.63
2022-10-30T09:50:53.407Z,98699.16
2022-10-30T09:54:01.463Z,98694.56
2022-10-30T09:56:42.816Z,98692.84
2022-10-30T09:59:26.592Z,98697.50
2022-10-30T10:01:54.020Z,98696.44
2022-10-30T10:04:27.460Z,98703.34
2022-10-30T10:07:47.740Z,98695.59
2022-10-30T10:10:46.568Z,98689.91
2022-10-30T10:13:42.222Z,98694.72
2022-10-30T10:16:20.739Z,98689.97
2022-10-30T10:18:53.629Z,98690.47
2022-10-30T10:21:29.125Z,98688.00
2022-10-30T10:24:01.025Z,98684.50
2022-10-30T10:26:57.657Z,98692.25
2022-10-30T10:29:59.816Z,98696.56
2022-10-30T10:32:36.012Z,98675.31
2022-10-30T10:35:33.603Z,98679.66
2022-10-30T10:38:07.083Z,98686.03
2022-10-30T10:40:40.208Z,98677.44
2022-10-30T10:43:18.653Z,98676.69
2022-10-30T10:46:04.868Z,98669.22
2022-10-30T10:48:56.267Z,98670.13
2022-10-30T10:51:41.102Z,98667.97
2022-10-30T10:54:24.877Z,98665.69
2022-10-30T10:56:52.716Z,98671.59
2022-10-30T10:59:38.781Z,98673.19
2022-10-30T11:02:06.081Z,98656.31
2022-10-30T11:04:39.457Z,98658.03
2022-10-30T11:07:27.134Z,98654.03
2022-10-30T11:09:55.603Z,98655.56
2022-10-30T11:12:36.384Z,98651.25
2022-10-30T11:15:29.078Z,98644.59
2022-10-30T11:18:01.949Z,98639.47
2022-10-30T11:20:32.018Z,98644.13
2022-10-30T11:22:59.536Z,98640.88
2022-10-30T11:25:33.472Z,98631.53
2022-10-30T11:28:04.381Z,98630.91
2022-10-30T11:30:32.544Z,98625.59
2022-10-30T11:33:00.557Z,98632.72
2022-10-30T11:35:27.946Z,98629.72
2022-10-30T11:38:21.325Z,98628.56
2022-10-30T11:40:51.526Z,98625.63
2022-10-30T11:43:22.420Z,98629.19
2022-10-30T11:45:50.603Z,98625.41
2022-10-30T11:48:27.959Z,98625.66
2022-10-30T11:51:02.046Z,98629.69
2022-10-30T11:53:39.265Z,98618.97
2022-10-30T11:56:21.746Z,98619.88
2022-10-30T11:58:53.880Z,98606.91
2022-10-30T12:01:37.111Z,98618.97
2022-10-30T12:04:27.461Z,98617.38
2022-10-30T12:07:21.352Z,98610.75
2022-10-30T12:09:48.879Z,98610.25
2022-10-30T12:12:23.439Z,98603.31
2022-10-30T12:14:51.820Z,98602.13
2022-10-30T12:17:19.856Z,98599.28
2022-10-30T12:19:57.397Z,98600.91
2022-10-30T12:22:35.222Z,98598.19
2022-10-30T12:25:25.884Z,98610.81
2022-10-30T12:28:13.371Z,98608.91
2022-10-30T12:31:10.959Z,98603.81
2022-10-30T12:33:50.010Z,98595.81
2022-10-30T12:36:25.498Z,98598.75
2022-10-30T12:39:11.846Z,98602.06
2022-10-30T12:42:04.251Z,98593.31
2022-10-30T12:44:39.231Z,98589.19
2022-10-30T12:48:02.556Z,98596.50
2022-10-30T12:50:59.014Z,98596.50
2022-10-30T12:53:34.739Z,98598.00
2022-10-30T12:56:14.817Z,98588.16
2022-10-30T12:59:43.787Z,98589.31
2022-10-30T13:02:28.493Z,98586.81
2022-10-30T13:05:04.311Z,98589.78
2022-10-30T13:07:45.415Z,98589.66
2022-10-30T13:10:46.415Z,98584.81
2022-10-30T13:13:24.729Z,98581.75
2022-10-30T13:15:55.946Z,98582.19
2022-10-30T13:18:26.834Z,98586.22
2022-10-30T13:21:05.909Z,98580.78
2022-10-30T13:24:00.046Z,98581.56
2022-10-30T13:26:54.762Z,98579.56
2022-10-30T13:29:42.676Z,98576.28
2022-10-30T13:32:21.434Z,98571.38
2022-10-30T13:35:26.035Z,98576.03
2022-10-30T13:38:11.804Z,98580.78
2022-10-30T13:40:59.193Z,98583.97
2022-10-30T13:43:44.262Z,98575.63
2022-10-30T13:46:33.792Z,98576.25
2022-10-30T13:49:40.290Z,98587.88
2022-10-30T13:52:15.221Z,98577.28
2022-10-30T13:55:08.389Z,98580.50
2022-10-30T13:57:41.422Z,98583.72
2022-10-30T14:00:22.804Z,98580.38
2022-10-30T14:03:23.520Z,98589.56
2022-10-30T14:06:12.761Z,98586.53
2022-10-30T14:09:10.428Z,98587.47
2022-10-30T14:11:37.361Z,98583.34
2022-10-30T14:14:13.058Z,98581.91
2022-10-30T14:17:08.766Z,98585.28
2022-10-30T14:20:13.781Z,98581.88
2022-10-30T14:22:41.555Z,98584.59
2022-10-30T14:25:16.000Z,98587.13
2022-10-30T14:27:43.349Z,98580.69
2022-10-30T14:30:19.511Z,98579.91
2022-10-30T14:32:53.390Z,98585.47
2022-10-30T14:35:36.339Z,98583.38
2022-10-30T14:38:09.019Z,98584.75
2022-10-30T14:40:44.542Z,98581.66
2022-10-30T14:43:48.253Z,98579.78
2022-10-30T14:47:04.496Z,98577.25
2022-10-30T14:49:47.791Z,98584.47
2022-10-30T14:52:34.828Z,98579.28
2022-10-30T14:55:28.220Z,98580.94
2022-10-30T14:58:04.195Z,98584.34
2022-10-30T15:00:34.930Z,98572.28
2022-10-30T15:03:18.338Z,98583.59
2022-10-30T15:05:55.713Z,98570.75
2022-10-30T15:08:46.243Z,98571.00
2022-10-30T15:11:45.278Z,98575.75
2022-10-30T15:14:52.565Z,98570.75
2022-10-30T15:17:33.624Z,98563.44
2022-10-30T15:20:06.167Z,98565.84
2022-10-30T15:22:34.927Z,98559.91
2022-10-30T15:25:03.706Z,98561.50
2022-10-30T15:27:33.208Z,98564.81
2022-10-30T15:30:04.305Z,98562.81
2022-10-30T15:32:31.221Z,98560.44
2022-10-30T15:35:05.269Z,98565.59
2022-10-30T15:37:32.595Z,98572.22
2022-10-30T15:40:21.349Z,98576.84
2022-10-30T15:42:50.810Z,98577.53
2022-10-30T15:45:46.476Z,98577.44
2022-10-30T15:48:32.911Z,98586.19
2022-10-30T15:51:18.053Z,98577.81
2022-10-30T15:53:59.768Z,98587.38
2022-10-30T15:56:32.703Z,98583.56
2022-10-30T15:59:24.081Z,98581.91
2022-10-30T16:01:54.888Z,98582.78
2022-10-30T16:04:25.439Z,98581.78
2022-10-30T16:07:03.704Z,98580.63
2022-10-30T16:09:30.752Z,98580.13
2022-10-30T16:12:00.315Z,98574.97
2022-10-30T16:14:34.830Z,98574.78
2022-10-30T16:17:02.806Z,98567.88
2022-10-30T16:19:41.779Z,98555.31
2022-10-30T16:22:24.250Z,98563.38
2022-10-30T16:24:51.512Z,98569.31
2022-10-30T16:27:21.721Z,98571.41
2022-10-30T16:29:58.819Z,98563.53
2022-10-30T16:32:30.557Z,98562.28
2022-10-30T16:34:59.891Z,98564.25
2022-10-30T16:37:37.368Z,98568.13
2022-10-30T16:40:15.437Z,98566.28
2022-10-30T16:42:49.557Z,98572.16
2022-10-30T16:45:19.530Z,98570.25
2022-10-30T16:47:54.120Z,98569.34
2022-10-30T16:50:21.233Z,98578.03
2022-10-30T16:52:49.600Z,98576.41
2022-10-30T16:55:22.226Z,98574.53
2022-10-30T16:57:56.302Z,98588.03
2022-10-30T17:00:27.496Z,98585.19
2022-10-30T17:02:57.740Z,98588.22
2022-10-30T17:05:33.755Z,98594.38
2022-10-30T17:08:17.320Z,98601.31
2022-10-30T17:10:57.607Z,98603.69
2022-10-30T17:13:51.980Z,98610.25
2022-10-30T17:16:25.525Z,98609.22
2022-10-30T17:18:55.281Z,98611.63
2022-10-30T17:21:39.745Z,98616.94
2022-10-30T17:24:19.219Z,98615.16
2022-10-30T17:26:56.347Z,98623.13
2022-10-30T17:29:38.528Z,98631.03
2022-10-30T17:32:27.647Z,98631.16
2022-10-30T17:35:01.086Z,98634.09
2022-10-30T17:37:28.583Z,98632.44
2022-10-30T17:39:56.375Z,98634.78
2022-10-30T17:42:23.353Z,98642.38
2022-10-30T17:44:50.350Z,98656.25
2022-10-30T17:47:19.961Z,98656.50
2022-10-30T17:49:47.213Z,98656.38
2022-10-30T17:52:17.894Z,98657.94
2022-10-30T17:54:45.188Z,98666.19
2022-10-30T17:57:14.257Z,98676.66
2022-10-30T17:59:42.548Z,98669.81
2022-10-30T18:02:19.067Z,98669.38
2022-10-30T18:04:47.734Z,98669.34
2022-10-30T18:07:16.720Z,98677.22
2022-10-30T18:09:44.266Z,98672.41
2022-10-30T18:12:16.883Z,98677.81
2022-10-30T18:14:45.581Z,98683.53
2022-10-30T18:17:12.916Z,98684.13
2022-10-30T18:19:39.847Z,98688.16
2022-10-30T18:22:06.820Z,98699.31
2022-10-30T18:24:33.895Z,98695.53
2022-10-30T18:27:00.851Z,98699.44
2022-10-30T18:29:27.762Z,98697.63
2022-10-30T18:31:54.665Z,98697.31
2022-10-30T18:34:21.712Z,98697.38
2022-10-30T18:36:49.419Z,98697.63
2022-10-30T18:39:16.348Z,98699.81
2022-10-30T18:41:45.885Z,98697.31
2022-10-30T18:44:17.814Z,98703.31
2022-10-30T18:46:45.372Z,98703.16
2022-10-30T18:49:12.627Z,98709.81
2022-10-30T18:51:40.116Z,98699.94
2022-10-30T18:54:15.513Z,98703.63
2022-10-30T18:56:42.716Z,98692.09
2022-10-30T18:59:09.731Z,98698.63
2022-10-30T19:01:37.484Z,98696.19
2022-10-30T19:04:09.683Z,98691.88
2022-10-30T19:06:38.535Z,98691.53
2022-10-30T19:09:05.751Z,98693.34
2022-10-30T19:11:33.286Z,98693.75
2022-10-30T19:14:00.454Z,98697.88
2022-10-30T19:16:27.551Z,98701.97
2022-10-30T19:18:54.645Z,98702.34
2022-10-30T19:21:25.496Z,98709.19
2022-10-30T19:23:53.051Z,98712.66
2022-10-30T19:26:20.118Z,98706.06
2022-10-30T19:28:47.010Z,98712.31
2022-10-30T19:31:17.099Z,98715.88
2022-10-30T19:33:44.942Z,98712.63
2022-10-30T19:36:31.025Z,98711.19
2022-10-30T19:38:58.196Z,98703.47
2022-10-30T19:41:25.368Z,98702.78
2022-10-30T19:43:53.408Z,98702.13
2022-10-30T19:46:21.611Z,98704.91
2022-10-30T19:48:57.788Z,98696.94
2022-10-30T19:51:27.398Z,98689.53
2022-10-30T19:53:54.422Z,98696.97
2022-10-30T19:56:21.903Z,98710.72
2022-10-30T19:58:49.526Z,98714.44
2022-10-30T20:01:17.161Z,98717.59
2022-10-30T20:03:44.266Z,98720.63
2022-10-30T20:06:13.128Z,98720.97
2022-10-30T20:08:40.236Z,98724.19
2022-10-30T20:11:07.356Z,98716.88
2022-10-30T20:13:34.321Z,98724.31
2022-10-30T20:16:04.730Z,98728.66
2022-10-30T20:18:35.065Z,98723.97
2022-10-30T20:21:08.180Z,98716.13
2022-10-30T20:23:36.224Z,98730.59
2022-10-30T20:26:07.071Z,98741.78
2022-10-30T20:28:40.640Z,98745.06
2022-10-30T20:31:10.999Z,98737.81
2022-10-30T20:33:38.493Z,98745.16
2022-10-30T20:36:05.915Z,98755.13
2022-10-30T20:38:34.581Z,98750.47
2022-10-30T20:41:04.528Z,98757.66
2022-10-30T20:43:38.012Z,98767.38
2022-10-30T20:46:09.264Z,98776.03
2022-10-30T20:48:38.035Z,98779.13
2022-10-30T20:51:06.749Z,98794.50
2022-10-30T20:53:34.464Z,98798.06
2022-10-30T20:56:01.645Z,98811.13
2022-10-30T20:58:29.281Z,98811.06
2022-10-30T21:00:58.532Z,98804.88
2022-10-30T21:03:27.139Z,98805.75
2022-10-30T21:06:00.499Z,98812.63
2022-10-30T21:08:31.351Z,98815.25
2022-10-30T21:11:04.104Z,98822.19
2022-10-30T21:13:33.437Z,98818.06
2022-10-30T21:16:03.934Z,98817.59
2022-10-30T21:18:31.268Z,98814.28
2022-10-30T21:21:08.137Z,98817.22
2022-10-30T21:23:35.255Z,98820.53
2022-10-30T21:26:05.576Z,98824.19
2022-10-30T21:28:33.963Z,98816.19
2022-10-30T21:31:07.503Z,98801.28
2022-10-30T21:33:36.675Z,98804.88
2022-10-30T21:36:19.882Z,98802.94
2022-10-30T21:38:47.165Z,98799.16
2022-10-30T21:41:20.392Z,98789.47
2022-10-30T21:43:58.197Z,98790.06
2022-10-30T21:46:28.947Z,98791.69
2022-10-30T21:48:56.560Z,98788.66
2022-10-30T21:51:26.477Z,98794.31
2022-10-30T21:53:55.512Z,98792.41
2022-10-30T21:56:26.222Z,98788.25
2022-10-30T21:58:56.389Z,98794.78
2022-10-30T22:01:30.045Z,98794.38
2022-10-30T22:03:59.956Z,98788.31
2022-10-30T22:06:28.229Z,98785.88
2022-10-30T22:08:56.964Z,98783.28
2022-10-30T22:11:27.608Z,98782.16
2022-10-30T22:14:00.582Z,98783.06
2022-10-30T22:16:31.135Z,98792.78
2022-10-30T22:18:59.043Z,98786.19
2022-10-30T22:21:26.521Z,98800.09
2022-10-30T22:23:53.800Z,98799.78
2022-10-30T22:26:23.351Z,98794.38
2022-10-30T22:28:59.610Z,98790.22
2022-10-30T22:31:28.873Z,98797.56
2022-10-30T22:33:55.893Z,98789.34
2022-10-30T22:36:26.947Z,98799.31
2022-10-30T22:39:07.644Z,98793.16
2022-10-30T22:41:37.936Z,98798.47
2022-10-30T22:44:08.329Z,98803.34
2022-10-30T22:46:36.794Z,98804.31
2022-10-30T22:49:04.338Z,98812.88
2022-10-30T22:51:34.055Z,98802.50
2022-10-30T22:54:04.587Z,98803.03
2022-10-30T22:56:34.642Z,98808.63
2022-10-30T22:59:07.532Z,98814.44
2022-10-30T23:01:36.584Z,98814.34
2022-10-30T23:04:05.715Z,98810.22
2022-10-30T23:06:34.856Z,98810.84
2022-10-30T23:09:05.973Z,98808.63
2022-10-30T23:11:33.276Z,98806.84
2022-10-30T23:14:00.266Z,98807.97
2022-10-30T23:16:28.182Z,98804.50
2022-10-30T23:18:57.503Z,98807.88
2022-10-30T23:21:27.763Z,98803.34
2022-10-30T23:23:56.073Z,98809.06
2022-10-30T23:26:30.708Z,98804.63
2022-10-30T23:28:59.231Z,98802.91
2022-10-30T23:31:36.445Z,98803.03
2022-10-30T23:34:07.816Z,98813.19
2022-10-30T23:36:35.553Z,98801.03
2022-10-30T23:39:05.962Z,98807.25
2022-10-30T23:41:34.469Z,98810.31
2022-10-30T23:44:12.151Z,98809.28
2022-10-30T23:46:39.719Z,98801.88
2022-10-30T23:49:06.725Z,98808.31
2022-10-30T23:51:34.100Z,98807.97
2022-10-30T23:54:01.444Z,98811.00
2022-10-30T23:56:29.537Z,98805.31
2022-10-30T23:58:57.510Z,98810.84
